sensor_id;sensor_type;location;lat;lon;timestamp;pressure;altitude;pressure_sealevel;temperature;humidity
50696;BME280;36665;51.786;21.594;2023-01-28T00:07:19;91450.69;;;-1.18;79.63
50696;BME280;36665;51.786;21.594;2023-01-28T00:15:43;91466.10;;;-1.15;79.41
50696;BME280;36665;51.786;21.594;2023-01-28T00:24:06;91482.05;;;-1.10;79.44
50696;BME280;36665;51.786;21.594;2023-01-28T00:32:31;91473.05;;;-1.13;79.60
50696;BME280;36665;51.786;21.594;2023-01-28T00:40:54;91463.73;;;-1.15;79.44
50696;BME280;36665;51.786;21.594;2023-01-28T00:49:18;91481.45;;;-1.09;79.48
50696;BME280;36665;51.786;21.594;2023-01-28T00:57:41;91508.27;;;-1.02;79.53
50696;BME280;36665;51.786;21.594;2023-01-28T01:06:04;91502.64;;;-1.04;79.52
50696;BME280;36665;51.786;21.594;2023-01-28T01:14:27;91476.46;;;-1.11;79.65
50696;BME280;36665;51.786;21.594;2023-01-28T01:22:50;91471.98;;;-1.13;79.75
50696;BME280;36665;51.786;21.594;2023-01-28T01:31:15;91491.48;;;-1.07;79.70
50696;BME280;36665;51.786;21.594;2023-01-28T01:39:39;91484.53;;;-1.10;79.62
50696;BME280;36665;51.786;21.594;2023-01-28T01:48:05;91458.89;;;-1.18;79.31
50696;BME280;36665;51.786;21.594;2023-01-28T01:56:40;91464.19;;;-1.16;79.32
50696;BME280;36665;51.786;21.594;2023-01-28T02:05:07;91476.31;;;-1.12;79.52
50696;BME280;36665;51.786;21.594;2023-01-28T02:13:34;91460.36;;;-1.16;79.48
50696;BME280;36665;51.786;21.594;2023-01-28T02:31:17;91452.83;;;-1.19;79.41
50696;BME280;36665;51.786;21.594;2023-01-28T02:39:51;91468.12;;;-1.14;79.60
50696;BME280;36665;51.786;21.594;2023-01-28T02:48:16;91459.59;;;-1.16;79.85
50696;BME280;36665;51.786;21.594;2023-01-28T02:56:51;91472.17;;;-1.12;79.77
50696;BME280;36665;51.786;21.594;2023-01-28T03:05:29;91491.22;;;-1.08;79.76
50696;BME280;36665;51.786;21.594;2023-01-28T03:13:53;91462.52;;;-1.16;79.99
50696;BME280;36665;51.786;21.594;2023-01-28T03:22:36;91418.36;;;-1.28;79.95
50696;BME280;36665;51.786;21.594;2023-01-28T03:31:21;91414.94;;;-1.30;80.01
50696;BME280;36665;51.786;21.594;2023-01-28T03:40:07;91433.20;;;-1.24;79.92
50696;BME280;36665;51.786;21.594;2023-01-28T03:48:31;91434.77;;;-1.25;79.77
50696;BME280;36665;51.786;21.594;2023-01-28T03:56:56;91394.17;;;-1.35;79.77
50696;BME280;36665;51.786;21.594;2023-01-28T04:05:19;91383.41;;;-1.39;79.79
50696;BME280;36665;51.786;21.594;2023-01-28T04:13:45;91399.11;;;-1.34;79.99
50696;BME280;36665;51.786;21.594;2023-01-28T04:22:10;91376.36;;;-1.42;79.90
50696;BME280;36665;51.786;21.594;2023-01-28T04:30:35;91319.21;;;-1.57;79.85
50696;BME280;36665;51.786;21.594;2023-01-28T04:38:58;91311.15;;;-1.58;79.73
50696;BME280;36665;51.786;21.594;2023-01-28T04:47:36;91346.62;;;-1.49;79.75
50696;BME280;36665;51.786;21.594;2023-01-28T04:56:25;91338.98;;;-1.51;80.01
50696;BME280;36665;51.786;21.594;2023-01-28T05:04:49;91321.23;;;-1.55;79.95
50696;BME280;36665;51.786;21.594;2023-01-28T05:13:29;91331.92;;;-1.53;79.96
50696;BME280;36665;51.786;21.594;2023-01-28T05:21:52;91344.08;;;-1.50;80.01
50696;BME280;36665;51.786;21.594;2023-01-28T05:30:26;91331.27;;;-1.54;79.98
50696;BME280;36665;51.786;21.594;2023-01-28T05:38:49;91342.63;;;-1.51;80.24
50696;BME280;36665;51.786;21.594;2023-01-28T05:47:12;91364.63;;;-1.44;80.22
50696;BME280;36665;51.786;21.594;2023-01-28T05:56:08;91352.28;;;-1.47;80.10
50696;BME280;36665;51.786;21.594;2023-01-28T06:04:32;91351.70;;;-1.47;80.02
50696;BME280;36665;51.786;21.594;2023-01-28T06:12:55;91373.83;;;-1.42;80.18
50696;BME280;36665;51.786;21.594;2023-01-28T06:21:37;91398.13;;;-1.34;80.25
50696;BME280;36665;51.786;21.594;2023-01-28T06:30:00;91411.25;;;-1.31;80.22
50696;BME280;36665;51.786;21.594;2023-01-28T06:38:24;91418.86;;;-1.29;80.06
50696;BME280;36665;51.786;21.594;2023-01-28T06:46:47;91428.28;;;-1.27;80.39
50696;BME280;36665;51.786;21.594;2023-01-28T06:55:10;91413.13;;;-1.30;80.51
50696;BME280;36665;51.786;21.594;2023-01-28T07:03:33;91429.62;;;-1.27;80.33
50696;BME280;36665;51.786;21.594;2023-01-28T07:11:56;91433.60;;;-1.26;80.32
50696;BME280;36665;51.786;21.594;2023-01-28T07:20:19;91420.33;;;-1.30;80.23
50696;BME280;36665;51.786;21.594;2023-01-28T07:28:42;91384.64;;;-1.40;80.21
50696;BME280;36665;51.786;21.594;2023-01-28T07:37:05;91396.70;;;-1.36;80.15
50696;BME280;36665;51.786;21.594;2023-01-28T07:45:28;91453.79;;;-1.21;80.30
50696;BME280;36665;51.786;21.594;2023-01-28T07:53:53;91491.29;;;-1.10;80.39
50696;BME280;36665;51.786;21.594;2023-01-28T08:02:17;91511.99;;;-1.04;80.36
50696;BME280;36665;51.786;21.594;2023-01-28T08:10:40;91544.09;;;-0.96;80.56
50696;BME280;36665;51.786;21.594;2023-01-28T08:19:03;91588.92;;;-0.83;80.62
50696;BME280;36665;51.786;21.594;2023-01-28T08:27:26;91604.77;;;-0.80;80.72
50696;BME280;36665;51.786;21.594;2023-01-28T08:35:49;91605.55;;;-0.79;80.52
50696;BME280;36665;51.786;21.594;2023-01-28T08:44:12;91609.83;;;-0.78;80.77
50696;BME280;36665;51.786;21.594;2023-01-28T08:52:35;91604.25;;;-0.80;80.61
50696;BME280;36665;51.786;21.594;2023-01-28T09:01:03;91602.67;;;-0.81;80.60
50696;BME280;36665;51.786;21.594;2023-01-28T09:09:26;91640.48;;;-0.69;80.63
50696;BME280;36665;51.786;21.594;2023-01-28T09:17:49;91669.42;;;-0.63;80.81
50696;BME280;36665;51.786;21.594;2023-01-28T09:26:12;91661.09;;;-0.64;80.78
50696;BME280;36665;51.786;21.594;2023-01-28T09:34:35;91670.86;;;-0.61;80.69
50696;BME280;36665;51.786;21.594;2023-01-28T09:43:29;91710.46;;;-0.51;80.58
50696;BME280;36665;51.786;21.594;2023-01-28T09:51:52;91754.94;;;-0.40;80.75
50696;BME280;36665;51.786;21.594;2023-01-28T10:00:22;91757.10;;;-0.39;80.82
50696;BME280;36665;51.786;21.594;2023-01-28T10:17:26;91725.73;;;-0.47;80.52
50696;BME280;36665;51.786;21.594;2023-01-28T10:25:53;91738.70;;;-0.44;80.74
50696;BME280;36665;51.786;21.594;2023-01-28T10:34:20;91742.40;;;-0.42;80.83
50696;BME280;36665;51.786;21.594;2023-01-28T10:42:44;91736.94;;;-0.44;80.65
50696;BME280;36665;51.786;21.594;2023-01-28T10:51:07;91739.21;;;-0.44;80.97
50696;BME280;36665;51.786;21.594;2023-01-28T10:59:32;91757.10;;;-0.39;81.01
50696;BME280;36665;51.786;21.594;2023-01-28T11:08:05;91763.05;;;-0.36;80.79
50696;BME280;36665;51.786;21.594;2023-01-28T11:16:28;91767.17;;;-0.37;80.62
50696;BME280;36665;51.786;21.594;2023-01-28T11:24:51;91775.68;;;-0.34;80.91
50696;BME280;36665;51.786;21.594;2023-01-28T11:33:27;91804.27;;;-0.25;80.86
50696;BME280;36665;51.786;21.594;2023-01-28T11:41:53;91814.47;;;-0.22;80.93
50696;BME280;36665;51.786;21.594;2023-01-28T11:50:42;91839.16;;;-0.16;81.10
50696;BME280;36665;51.786;21.594;2023-01-28T12:08:40;91855.20;;;-0.12;81.11
50696;BME280;36665;51.786;21.594;2023-01-28T12:25:37;91807.61;;;-0.26;80.93
50696;BME280;36665;51.786;21.594;2023-01-28T13:00:34;91822.55;;;-0.22;80.93
50696;BME280;36665;51.786;21.594;2023-01-28T13:09:02;91823.70;;;-0.22;80.92
50696;BME280;36665;51.786;21.594;2023-01-28T13:17:32;91794.27;;;-0.30;80.89
50696;BME280;36665;51.786;21.594;2023-01-28T13:25:57;91749.77;;;-0.42;81.00
50696;BME280;36665;51.786;21.594;2023-01-28T13:34:33;91749.57;;;-0.42;81.11
50696;BME280;36665;51.786;21.594;2023-01-28T13:43:04;91746.30;;;-0.43;80.89
50696;BME280;36665;51.786;21.594;2023-01-28T13:51:30;91731.92;;;-0.47;80.79
50696;BME280;36665;51.786;21.594;2023-01-28T14:00:24;91720.95;;;-0.50;80.84
50696;BME280;36665;51.786;21.594;2023-01-28T14:17:55;91745.42;;;-0.43;80.80
50696;BME280;36665;51.786;21.594;2023-01-28T14:26:33;91743.40;;;-0.43;80.80
50696;BME280;36665;51.786;21.594;2023-01-28T14:35:04;91736.58;;;-0.46;80.93
50696;BME280;36665;51.786;21.594;2023-01-28T14:43:30;91746.09;;;-0.43;80.93
50696;BME280;36665;51.786;21.594;2023-01-28T14:52:23;91774.68;;;-0.35;80.74
50696;BME280;36665;51.786;21.594;2023-01-28T15:00:55;91761.46;;;-0.38;80.71
50696;BME280;36665;51.786;21.594;2023-01-28T15:09:21;91702.05;;;-0.54;80.71
50696;BME280;36665;51.786;21.594;2023-01-28T15:17:45;91684.71;;;-0.59;80.62
50696;BME280;36665;51.786;21.594;2023-01-28T15:34:44;91657.33;;;-0.67;80.68
50696;BME280;36665;51.786;21.594;2023-01-28T15:43:29;91642.35;;;-0.71;80.63
50696;BME280;36665;51.786;21.594;2023-01-28T15:51:52;91647.52;;;-0.70;80.62
50696;BME280;36665;51.786;21.594;2023-01-28T16:00:18;91669.23;;;-0.64;80.61
50696;BME280;36665;51.786;21.594;2023-01-28T16:08:50;91666.73;;;-0.64;80.58
50696;BME280;36665;51.786;21.594;2023-01-28T16:17:20;91656.82;;;-0.67;80.57
50696;BME280;36665;51.786;21.594;2023-01-28T16:25:43;91636.65;;;-0.72;80.72
50696;BME280;36665;51.786;21.594;2023-01-28T16:34:09;91629.55;;;-0.74;80.60
50696;BME280;36665;51.786;21.594;2023-01-28T16:42:32;91640.61;;;-0.71;80.48
50696;BME280;36665;51.786;21.594;2023-01-28T16:50:55;91635.53;;;-0.72;80.68
50696;BME280;36665;51.786;21.594;2023-01-28T16:59:18;91614.17;;;-0.78;80.64
50696;BME280;36665;51.786;21.594;2023-01-28T17:07:41;91587.29;;;-0.85;80.66
50696;BME280;36665;51.786;21.594;2023-01-28T17:16:05;91584.83;;;-0.87;80.48
50696;BME280;36665;51.786;21.594;2023-01-28T17:24:28;91606.82;;;-0.80;80.60
50696;BME280;36665;51.786;21.594;2023-01-28T17:32:51;91624.29;;;-0.75;80.74
50696;BME280;36665;51.786;21.594;2023-01-28T17:41:16;91608.09;;;-0.81;80.53
50696;BME280;36665;51.786;21.594;2023-01-28T17:49:39;91593.98;;;-0.84;80.56
50696;BME280;36665;51.786;21.594;2023-01-28T17:58:02;91614.70;;;-0.78;80.54
50696;BME280;36665;51.786;21.594;2023-01-28T18:06:33;91626.23;;;-0.75;80.52
50696;BME280;36665;51.786;21.594;2023-01-28T18:14:56;91616.19;;;-0.78;80.56
50696;BME280;36665;51.786;21.594;2023-01-28T18:23:19;91587.42;;;-0.86;80.58
50696;BME280;36665;51.786;21.594;2023-01-28T18:31:42;91585.25;;;-0.86;80.64
50696;BME280;36665;51.786;21.594;2023-01-28T18:40:05;91586.98;;;-0.85;80.46
50696;BME280;36665;51.786;21.594;2023-01-28T18:48:28;91552.20;;;-0.95;80.39
50696;BME280;36665;51.786;21.594;2023-01-28T18:56:51;91530.80;;;-1.01;80.34
50696;BME280;36665;51.786;21.594;2023-01-28T19:05:14;91540.02;;;-0.99;80.30
50696;BME280;36665;51.786;21.594;2023-01-28T19:13:39;91536.77;;;-1.00;80.29
50696;BME280;36665;51.786;21.594;2023-01-28T19:22:02;91531.04;;;-1.02;80.45
50696;BME280;36665;51.786;21.594;2023-01-28T19:30:25;91541.02;;;-0.98;80.44
50696;BME280;36665;51.786;21.594;2023-01-28T19:38:48;91562.16;;;-0.91;80.37
50696;BME280;36665;51.786;21.594;2023-01-28T19:47:10;91541.84;;;-0.98;80.14
50696;BME280;36665;51.786;21.594;2023-01-28T19:55:37;91530.98;;;-1.00;80.38
50696;BME280;36665;51.786;21.594;2023-01-28T20:04:00;91505.91;;;-1.07;80.32
50696;BME280;36665;51.786;21.594;2023-01-28T20:12:22;91478.52;;;-1.15;80.35
50696;BME280;36665;51.786;21.594;2023-01-28T20:20:53;91466.48;;;-1.18;80.25
50696;BME280;36665;51.786;21.594;2023-01-28T20:29:17;91479.25;;;-1.14;80.30
50696;BME280;36665;51.786;21.594;2023-01-28T20:37:41;91475.12;;;-1.15;80.13
50696;BME280;36665;51.786;21.594;2023-01-28T20:46:10;91455.85;;;-1.20;80.19
50696;BME280;36665;51.786;21.594;2023-01-28T20:54:34;91449.02;;;-1.22;80.21
50696;BME280;36665;51.786;21.594;2023-01-28T21:02:57;91461.12;;;-1.19;80.27
50696;BME280;36665;51.786;21.594;2023-01-28T21:11:21;91462.57;;;-1.18;80.31
50696;BME280;36665;51.786;21.594;2023-01-28T21:19:44;91444.25;;;-1.24;79.99
50696;BME280;36665;51.786;21.594;2023-01-28T21:28:11;91450.27;;;-1.21;79.72
50696;BME280;36665;51.786;21.594;2023-01-28T21:36:36;91466.67;;;-1.17;79.84
50696;BME280;36665;51.786;21.594;2023-01-28T21:44:59;91453.73;;;-1.21;79.83
50696;BME280;36665;51.786;21.594;2023-01-28T21:53:22;91447.00;;;-1.22;79.89
50696;BME280;36665;51.786;21.594;2023-01-28T22:01:45;91436.53;;;-1.26;79.89
50696;BME280;36665;51.786;21.594;2023-01-28T22:10:10;91420.59;;;-1.30;79.88
50696;BME280;36665;51.786;21.594;2023-01-28T22:18:33;91398.52;;;-1.36;80.01
50696;BME280;36665;51.786;21.594;2023-01-28T22:26:56;91388.42;;;-1.38;79.68
50696;BME280;36665;51.786;21.594;2023-01-28T22:35:19;91381.68;;;-1.40;79.89
50696;BME280;36665;51.786;21.594;2023-01-28T22:43:45;91363.33;;;-1.45;79.83
50696;BME280;36665;51.786;21.594;2023-01-28T22:52:08;91364.79;;;-1.45;79.83
50696;BME280;36665;51.786;21.594;2023-01-28T23:00:31;91342.02;;;-1.51;79.65
50696;BME280;36665;51.786;21.594;2023-01-28T23:08:54;91317.48;;;-1.58;79.61
50696;BME280;36665;51.786;21.594;2023-01-28T23:17:19;91312.32;;;-1.59;79.73
50696;BME280;36665;51.786;21.594;2023-01-28T23:26:00;91311.30;;;-1.59;79.64
50696;BME280;36665;51.786;21.594;2023-01-28T23:34:23;91290.91;;;-1.65;79.49
50696;BME280;36665;51.786;21.594;2023-01-28T23:42:51;91283.20;;;-1.66;79.68
50696;BME280;36665;51.786;21.594;2023-01-28T23:51:17;91271.52;;;-1.70;79.60
50696;BME280;36665;51.786;21.594;2023-01-28T23:59:40;91251.67;;;-1.75;79.54
